sensor_id;sensor_type;location;lat;lon;timestamp;temperature;humidity
44166;DHT22;30476;53.468;9.826;2023-05-07T00:00:03;11.10;99.90
44166;DHT22;30476;53.468;9.826;2023-05-07T00:02:32;11.20;99.90
44166;DHT22;30476;53.468;9.826;2023-05-07T00:04:58;11.10;99.90
44166;DHT22;30476;53.468;9.826;2023-05-07T00:07:24;11.10;99.90
44166;DHT22;30476;53.468;9.826;2023-05-07T00:09:49;11.10;99.90
44166;DHT22;30476;53.468;9.826;2023-05-07T00:12:15;11.10;99.90
44166;DHT22;30476;53.468;9.826;2023-05-07T00:14:41;11.00;99.90
44166;DHT22;30476;53.468;9.826;2023-05-07T00:17:07;11.10;99.90
44166;DHT22;30476;53.468;9.826;2023-05-07T00:19:33;11.10;99.90
44166;DHT22;30476;53.468;9.826;2023-05-07T00:21:58;11.00;99.90
44166;DHT22;30476;53.468;9.826;2023-05-07T00:24:24;11.10;99.90
44166;DHT22;30476;53.468;9.826;2023-05-07T00:26:50;11.10;99.90
44166;DHT22;30476;53.468;9.826;2023-05-07T00:29:16;11.10;99.90
44166;DHT22;30476;53.468;9.826;2023-05-07T00:31:42;11.10;99.90
44166;DHT22;30476;53.468;9.826;2023-05-07T00:34:08;11.10;99.90
44166;DHT22;30476;53.468;9.826;2023-05-07T00:36:33;11.10;99.90
44166;DHT22;30476;53.468;9.826;2023-05-07T00:39:00;11.10;99.90
44166;DHT22;30476;53.468;9.826;2023-05-07T00:41:27;11.10;99.90
44166;DHT22;30476;53.468;9.826;2023-05-07T00:43:53;11.10;99.90
44166;DHT22;30476;53.468;9.826;2023-05-07T00:46:20;11.10;99.90
44166;DHT22;30476;53.468;9.826;2023-05-07T00:48:47;11.00;99.90
44166;DHT22;30476;53.468;9.826;2023-05-07T00:51:13;11.00;99.90
44166;DHT22;30476;53.468;9.826;2023-05-07T00:53:39;11.00;99.90
44166;DHT22;30476;53.468;9.826;2023-05-07T00:56:06;11.00;99.90
44166;DHT22;30476;53.468;9.826;2023-05-07T00:58:32;11.00;99.90
44166;DHT22;30476;53.468;9.826;2023-05-07T01:00:59;11.00;99.90
44166;DHT22;30476;53.468;9.826;2023-05-07T01:03:25;10.90;99.90
44166;DHT22;30476;53.468;9.826;2023-05-07T01:05:52;11.00;99.90
44166;DHT22;30476;53.468;9.826;2023-05-07T01:08:20;11.00;99.90
44166;DHT22;30476;53.468;9.826;2023-05-07T01:10:46;10.90;99.90
44166;DHT22;30476;53.468;9.826;2023-05-07T01:13:12;10.90;99.90
44166;DHT22;30476;53.468;9.826;2023-05-07T01:15:39;11.00;99.90
44166;DHT22;30476;53.468;9.826;2023-05-07T01:18:07;11.00;99.90
44166;DHT22;30476;53.468;9.826;2023-05-07T01:20:33;10.90;99.90
44166;DHT22;30476;53.468;9.826;2023-05-07T01:22:59;10.90;99.90
44166;DHT22;30476;53.468;9.826;2023-05-07T01:25:26;10.90;99.90
44166;DHT22;30476;53.468;9.826;2023-05-07T01:27:52;11.00;99.90
44166;DHT22;30476;53.468;9.826;2023-05-07T01:30:18;10.90;99.90
44166;DHT22;30476;53.468;9.826;2023-05-07T01:33:04;10.90;99.90
44166;DHT22;30476;53.468;9.826;2023-05-07T01:35:39;10.90;99.90
44166;DHT22;30476;53.468;9.826;2023-05-07T01:38:06;10.90;99.90
44166;DHT22;30476;53.468;9.826;2023-05-07T01:40:33;10.90;99.90
44166;DHT22;30476;53.468;9.826;2023-05-07T01:43:01;10.90;99.90
44166;DHT22;30476;53.468;9.826;2023-05-07T01:45:27;10.90;99.90
44166;DHT22;30476;53.468;9.826;2023-05-07T01:47:54;10.90;99.90
44166;DHT22;30476;53.468;9.826;2023-05-07T01:50:20;10.90;99.90
44166;DHT22;30476;53.468;9.826;2023-05-07T01:52:49;10.90;99.90
44166;DHT22;30476;53.468;9.826;2023-05-07T01:55:15;10.90;99.90
44166;DHT22;30476;53.468;9.826;2023-05-07T01:57:41;10.90;99.90
44166;DHT22;30476;53.468;9.826;2023-05-07T02:00:07;10.90;99.90
44166;DHT22;30476;53.468;9.826;2023-05-07T02:02:34;10.90;99.90
44166;DHT22;30476;53.468;9.826;2023-05-07T02:05:00;10.90;99.90
44166;DHT22;30476;53.468;9.826;2023-05-07T02:07:27;10.90;99.90
44166;DHT22;30476;53.468;9.826;2023-05-07T02:09:53;10.80;99.90
44166;DHT22;30476;53.468;9.826;2023-05-07T02:12:21;10.90;99.90
44166;DHT22;30476;53.468;9.826;2023-05-07T02:14:47;10.90;99.90
44166;DHT22;30476;53.468;9.826;2023-05-07T02:17:13;10.90;99.90
44166;DHT22;30476;53.468;9.826;2023-05-07T02:19:39;10.90;99.90
44166;DHT22;30476;53.468;9.826;2023-05-07T02:22:04;10.90;99.90
44166;DHT22;30476;53.468;9.826;2023-05-07T02:24:30;10.90;99.90
44166;DHT22;30476;53.468;9.826;2023-05-07T02:26:56;10.90;99.90
44166;DHT22;30476;53.468;9.826;2023-05-07T02:29:22;10.90;99.90
44166;DHT22;30476;53.468;9.826;2023-05-07T02:31:47;10.90;99.90
44166;DHT22;30476;53.468;9.826;2023-05-07T02:34:18;10.90;99.90
44166;DHT22;30476;53.468;9.826;2023-05-07T02:36:44;10.90;99.90
44166;DHT22;30476;53.468;9.826;2023-05-07T02:39:11;10.90;99.90
44166;DHT22;30476;53.468;9.826;2023-05-07T02:41:37;11.00;99.90
44166;DHT22;30476;53.468;9.826;2023-05-07T02:44:03;11.00;99.90
44166;DHT22;30476;53.468;9.826;2023-05-07T02:46:29;11.00;99.90
44166;DHT22;30476;53.468;9.826;2023-05-07T02:48:55;10.90;99.90
44166;DHT22;30476;53.468;9.826;2023-05-07T02:51:22;10.90;99.90
44166;DHT22;30476;53.468;9.826;2023-05-07T02:53:48;10.90;99.90
44166;DHT22;30476;53.468;9.826;2023-05-07T02:56:14;10.90;99.90
44166;DHT22;30476;53.468;9.826;2023-05-07T02:58:40;11.00;99.90
44166;DHT22;30476;53.468;9.826;2023-05-07T03:01:08;11.00;99.90
44166;DHT22;30476;53.468;9.826;2023-05-07T03:03:34;10.90;99.90
44166;DHT22;30476;53.468;9.826;2023-05-07T03:06:01;11.00;99.90
44166;DHT22;30476;53.468;9.826;2023-05-07T03:08:27;11.00;99.90
44166;DHT22;30476;53.468;9.826;2023-05-07T03:10:52;11.00;99.90
44166;DHT22;30476;53.468;9.826;2023-05-07T03:13:18;10.90;99.90
44166;DHT22;30476;53.468;9.826;2023-05-07T03:15:44;10.90;99.90
44166;DHT22;30476;53.468;9.826;2023-05-07T03:18:11;10.90;99.90
44166;DHT22;30476;53.468;9.826;2023-05-07T03:20:36;10.80;99.90
44166;DHT22;30476;53.468;9.826;2023-05-07T03:23:03;10.90;99.90
44166;DHT22;30476;53.468;9.826;2023-05-07T03:25:29;10.80;99.90
44166;DHT22;30476;53.468;9.826;2023-05-07T03:27:57;10.90;99.90
44166;DHT22;30476;53.468;9.826;2023-05-07T03:30:23;10.90;99.90
44166;DHT22;30476;53.468;9.826;2023-05-07T03:32:49;10.90;99.90
44166;DHT22;30476;53.468;9.826;2023-05-07T03:35:15;10.90;99.90
44166;DHT22;30476;53.468;9.826;2023-05-07T03:37:41;10.90;99.90
44166;DHT22;30476;53.468;9.826;2023-05-07T03:40:08;10.80;99.90
44166;DHT22;30476;53.468;9.826;2023-05-07T03:42:35;10.80;99.90
44166;DHT22;30476;53.468;9.826;2023-05-07T03:45:01;10.80;99.90
44166;DHT22;30476;53.468;9.826;2023-05-07T03:47:27;10.80;99.90
44166;DHT22;30476;53.468;9.826;2023-05-07T03:49:53;10.90;99.90
44166;DHT22;30476;53.468;9.826;2023-05-07T03:52:20;10.80;99.90
44166;DHT22;30476;53.468;9.826;2023-05-07T03:54:50;10.90;99.90
44166;DHT22;30476;53.468;9.826;2023-05-07T03:57:15;10.90;99.90
44166;DHT22;30476;53.468;9.826;2023-05-07T03:59:41;10.90;99.90
44166;DHT22;30476;53.468;9.826;2023-05-07T04:02:07;10.80;99.90
44166;DHT22;30476;53.468;9.826;2023-05-07T04:04:33;10.80;99.90
44166;DHT22;30476;53.468;9.826;2023-05-07T04:06:58;10.80;99.90
44166;DHT22;30476;53.468;9.826;2023-05-07T04:09:27;10.80;99.90
44166;DHT22;30476;53.468;9.826;2023-05-07T04:11:53;10.80;99.90
44166;DHT22;30476;53.468;9.826;2023-05-07T04:14:18;10.80;99.90
44166;DHT22;30476;53.468;9.826;2023-05-07T04:16:44;10.90;99.90
44166;DHT22;30476;53.468;9.826;2023-05-07T04:19:10;10.80;99.90
44166;DHT22;30476;53.468;9.826;2023-05-07T04:21:36;10.80;99.90
44166;DHT22;30476;53.468;9.826;2023-05-07T04:24:03;10.90;99.90
44166;DHT22;30476;53.468;9.826;2023-05-07T04:26:29;10.90;99.90
44166;DHT22;30476;53.468;9.826;2023-05-07T04:28:55;10.90;99.90
44166;DHT22;30476;53.468;9.826;2023-05-07T04:31:22;10.80;99.90
44166;DHT22;30476;53.468;9.826;2023-05-07T04:33:48;10.90;99.90
44166;DHT22;30476;53.468;9.826;2023-05-07T04:36:13;10.80;99.90
44166;DHT22;30476;53.468;9.826;2023-05-07T04:38:39;10.80;99.90
44166;DHT22;30476;53.468;9.826;2023-05-07T04:41:06;10.80;99.90
44166;DHT22;30476;53.468;9.826;2023-05-07T04:43:32;10.90;99.90
44166;DHT22;30476;53.468;9.826;2023-05-07T04:45:58;10.90;99.90
44166;DHT22;30476;53.468;9.826;2023-05-07T04:48:24;10.90;99.90
44166;DHT22;30476;53.468;9.826;2023-05-07T04:50:50;10.90;99.90
44166;DHT22;30476;53.468;9.826;2023-05-07T04:53:16;10.90;99.90
44166;DHT22;30476;53.468;9.826;2023-05-07T04:55:43;10.90;99.90
44166;DHT22;30476;53.468;9.826;2023-05-07T04:58:09;10.90;99.90
44166;DHT22;30476;53.468;9.826;2023-05-07T05:00:35;10.90;99.90
44166;DHT22;30476;53.468;9.826;2023-05-07T05:03:01;10.90;99.90
44166;DHT22;30476;53.468;9.826;2023-05-07T05:05:26;11.00;99.90
44166;DHT22;30476;53.468;9.826;2023-05-07T05:07:52;11.00;99.90
44166;DHT22;30476;53.468;9.826;2023-05-07T05:10:18;11.00;99.90
44166;DHT22;30476;53.468;9.826;2023-05-07T05:12:44;11.00;99.90
44166;DHT22;30476;53.468;9.826;2023-05-07T05:15:11;11.00;99.90
44166;DHT22;30476;53.468;9.826;2023-05-07T05:17:38;11.00;99.90
44166;DHT22;30476;53.468;9.826;2023-05-07T05:20:04;11.10;99.90
44166;DHT22;30476;53.468;9.826;2023-05-07T05:22:31;11.00;99.90
44166;DHT22;30476;53.468;9.826;2023-05-07T05:24:57;11.10;99.90
44166;DHT22;30476;53.468;9.826;2023-05-07T05:27:23;11.10;99.90
44166;DHT22;30476;53.468;9.826;2023-05-07T05:29:49;11.10;99.90
44166;DHT22;30476;53.468;9.826;2023-05-07T05:32:15;11.00;99.90
44166;DHT22;30476;53.468;9.826;2023-05-07T05:34:41;11.10;99.90
44166;DHT22;30476;53.468;9.826;2023-05-07T05:37:06;11.10;99.90
44166;DHT22;30476;53.468;9.826;2023-05-07T05:39:32;11.10;99.90
44166;DHT22;30476;53.468;9.826;2023-05-07T05:41:58;11.10;99.90
44166;DHT22;30476;53.468;9.826;2023-05-07T05:44:23;11.10;99.90
44166;DHT22;30476;53.468;9.826;2023-05-07T05:46:49;11.10;99.90
44166;DHT22;30476;53.468;9.826;2023-05-07T05:49:15;11.10;99.90
44166;DHT22;30476;53.468;9.826;2023-05-07T05:51:40;11.20;99.90
44166;DHT22;30476;53.468;9.826;2023-05-07T05:54:06;11.20;99.90
44166;DHT22;30476;53.468;9.826;2023-05-07T05:56:32;11.20;99.90
44166;DHT22;30476;53.468;9.826;2023-05-07T05:58:58;11.20;99.90
44166;DHT22;30476;53.468;9.826;2023-05-07T06:01:25;11.20;99.90
44166;DHT22;30476;53.468;9.826;2023-05-07T06:03:50;11.20;99.90
44166;DHT22;30476;53.468;9.826;2023-05-07T06:06:16;11.20;99.90
44166;DHT22;30476;53.468;9.826;2023-05-07T06:08:42;11.30;99.90
44166;DHT22;30476;53.468;9.826;2023-05-07T06:11:08;11.30;99.90
44166;DHT22;30476;53.468;9.826;2023-05-07T06:13:33;11.30;99.90
44166;DHT22;30476;53.468;9.826;2023-05-07T06:15:59;11.30;99.90
44166;DHT22;30476;53.468;9.826;2023-05-07T06:18:25;11.30;99.90
44166;DHT22;30476;53.468;9.826;2023-05-07T06:20:52;11.30;99.90
44166;DHT22;30476;53.468;9.826;2023-05-07T06:23:18;11.30;99.90
44166;DHT22;30476;53.468;9.826;2023-05-07T06:25:51;11.30;99.90
44166;DHT22;30476;53.468;9.826;2023-05-07T06:28:17;11.30;99.90
44166;DHT22;30476;53.468;9.826;2023-05-07T06:30:43;11.30;99.90
44166;DHT22;30476;53.468;9.826;2023-05-07T06:33:09;11.30;99.90
44166;DHT22;30476;53.468;9.826;2023-05-07T06:35:34;11.40;99.90
44166;DHT22;30476;53.468;9.826;2023-05-07T06:38:00;11.40;99.90
44166;DHT22;30476;53.468;9.826;2023-05-07T06:40:26;11.40;99.90
44166;DHT22;30476;53.468;9.826;2023-05-07T06:42:52;11.40;99.90
44166;DHT22;30476;53.468;9.826;2023-05-07T06:45:19;11.50;99.90
44166;DHT22;30476;53.468;9.826;2023-05-07T06:47:45;11.50;99.90
44166;DHT22;30476;53.468;9.826;2023-05-07T06:50:10;11.60;99.90
44166;DHT22;30476;53.468;9.826;2023-05-07T06:52:36;11.60;99.90
44166;DHT22;30476;53.468;9.826;2023-05-07T06:55:02;11.60;99.90
44166;DHT22;30476;53.468;9.826;2023-05-07T06:57:28;11.60;99.90
44166;DHT22;30476;53.468;9.826;2023-05-07T06:59:53;11.60;99.90
44166;DHT22;30476;53.468;9.826;2023-05-07T07:02:19;11.60;99.90
44166;DHT22;30476;53.468;9.826;2023-05-07T07:04:45;11.60;99.90
44166;DHT22;30476;53.468;9.826;2023-05-07T07:07:11;11.60;99.90
44166;DHT22;30476;53.468;9.826;2023-05-07T07:09:37;11.60;99.90
44166;DHT22;30476;53.468;9.826;2023-05-07T07:12:02;11.60;99.90
44166;DHT22;30476;53.468;9.826;2023-05-07T07:14:28;11.70;99.90
44166;DHT22;30476;53.468;9.826;2023-05-07T07:16:54;11.70;99.90
44166;DHT22;30476;53.468;9.826;2023-05-07T07:19:20;11.70;99.90
44166;DHT22;30476;53.468;9.826;2023-05-07T07:21:46;11.70;99.90
44166;DHT22;30476;53.468;9.826;2023-05-07T07:24:13;11.80;99.90
44166;DHT22;30476;53.468;9.826;2023-05-07T07:26:38;11.80;99.90
44166;DHT22;30476;53.468;9.826;2023-05-07T07:29:05;11.80;99.90
44166;DHT22;30476;53.468;9.826;2023-05-07T07:31:32;11.90;99.90
44166;DHT22;30476;53.468;9.826;2023-05-07T07:33:58;11.90;99.90
44166;DHT22;30476;53.468;9.826;2023-05-07T07:36:23;12.00;99.90
44166;DHT22;30476;53.468;9.826;2023-05-07T07:38:49;12.00;99.90
44166;DHT22;30476;53.468;9.826;2023-05-07T07:41:15;12.00;99.90
44166;DHT22;30476;53.468;9.826;2023-05-07T07:43:41;12.00;99.90
44166;DHT22;30476;53.468;9.826;2023-05-07T07:46:06;12.10;99.90
44166;DHT22;30476;53.468;9.826;2023-05-07T07:48:32;12.10;99.90
44166;DHT22;30476;53.468;9.826;2023-05-07T07:50:58;12.10;99.90
44166;DHT22;30476;53.468;9.826;2023-05-07T07:53:24;12.10;99.90
44166;DHT22;30476;53.468;9.826;2023-05-07T07:55:50;12.20;99.90
44166;DHT22;30476;53.468;9.826;2023-05-07T07:58:16;12.10;99.90
44166;DHT22;30476;53.468;9.826;2023-05-07T08:00:42;12.20;99.90
44166;DHT22;30476;53.468;9.826;2023-05-07T08:03:10;12.20;99.90
44166;DHT22;30476;53.468;9.826;2023-05-07T08:05:36;12.20;99.90
44166;DHT22;30476;53.468;9.826;2023-05-07T08:08:04;12.30;99.90
44166;DHT22;30476;53.468;9.826;2023-05-07T08:10:30;12.30;99.90
44166;DHT22;30476;53.468;9.826;2023-05-07T08:12:59;12.30;99.90
44166;DHT22;30476;53.468;9.826;2023-05-07T08:15:25;12.30;99.90
44166;DHT22;30476;53.468;9.826;2023-05-07T08:17:50;12.40;99.90
44166;DHT22;30476;53.468;9.826;2023-05-07T08:20:16;12.50;99.90
44166;DHT22;30476;53.468;9.826;2023-05-07T08:22:42;12.50;99.90
44166;DHT22;30476;53.468;9.826;2023-05-07T08:25:08;12.50;99.90
44166;DHT22;30476;53.468;9.826;2023-05-07T08:27:34;12.60;99.90
44166;DHT22;30476;53.468;9.826;2023-05-07T08:30:00;12.60;99.90
44166;DHT22;30476;53.468;9.826;2023-05-07T08:32:25;12.60;99.90
44166;DHT22;30476;53.468;9.826;2023-05-07T08:34:51;12.70;99.90
44166;DHT22;30476;53.468;9.826;2023-05-07T08:37:17;12.70;99.90
44166;DHT22;30476;53.468;9.826;2023-05-07T08:39:43;12.70;99.90
44166;DHT22;30476;53.468;9.826;2023-05-07T08:42:09;12.70;99.90
44166;DHT22;30476;53.468;9.826;2023-05-07T08:44:35;12.70;99.90
44166;DHT22;30476;53.468;9.826;2023-05-07T08:47:01;12.70;99.90
44166;DHT22;30476;53.468;9.826;2023-05-07T08:49:28;12.70;99.90
44166;DHT22;30476;53.468;9.826;2023-05-07T08:51:54;12.70;99.90
44166;DHT22;30476;53.468;9.826;2023-05-07T08:54:21;12.80;99.90
44166;DHT22;30476;53.468;9.826;2023-05-07T08:56:48;12.80;99.90
44166;DHT22;30476;53.468;9.826;2023-05-07T08:59:13;12.80;99.90
44166;DHT22;30476;53.468;9.826;2023-05-07T09:01:39;12.90;99.90
44166;DHT22;30476;53.468;9.826;2023-05-07T09:04:05;12.90;99.90
44166;DHT22;30476;53.468;9.826;2023-05-07T09:06:33;12.90;99.90
44166;DHT22;30476;53.468;9.826;2023-05-07T09:09:00;12.90;99.90
44166;DHT22;30476;53.468;9.826;2023-05-07T09:11:27;13.00;99.90
44166;DHT22;30476;53.468;9.826;2023-05-07T09:13:54;13.00;99.90
44166;DHT22;30476;53.468;9.826;2023-05-07T09:16:21;13.10;99.90
44166;DHT22;30476;53.468;9.826;2023-05-07T09:18:51;13.10;99.90
44166;DHT22;30476;53.468;9.826;2023-05-07T09:21:18;13.10;99.90
44166;DHT22;30476;53.468;9.826;2023-05-07T09:23:44;13.10;99.90
44166;DHT22;30476;53.468;9.826;2023-05-07T09:26:10;13.10;99.90
44166;DHT22;30476;53.468;9.826;2023-05-07T09:28:41;13.20;99.90
44166;DHT22;30476;53.468;9.826;2023-05-07T09:31:11;13.20;99.90
44166;DHT22;30476;53.468;9.826;2023-05-07T09:33:38;13.30;99.90
44166;DHT22;30476;53.468;9.826;2023-05-07T09:36:05;13.40;99.90
44166;DHT22;30476;53.468;9.826;2023-05-07T09:38:32;13.40;99.90
44166;DHT22;30476;53.468;9.826;2023-05-07T09:41:09;13.50;99.90
44166;DHT22;30476;53.468;9.826;2023-05-07T09:43:36;13.50;99.90
44166;DHT22;30476;53.468;9.826;2023-05-07T09:46:05;13.60;99.90
44166;DHT22;30476;53.468;9.826;2023-05-07T09:48:32;13.60;99.90
44166;DHT22;30476;53.468;9.826;2023-05-07T09:51:02;13.70;99.90
44166;DHT22;30476;53.468;9.826;2023-05-07T09:53:29;13.70;99.90
44166;DHT22;30476;53.468;9.826;2023-05-07T09:55:57;13.80;99.90
44166;DHT22;30476;53.468;9.826;2023-05-07T09:58:23;13.80;99.90
44166;DHT22;30476;53.468;9.826;2023-05-07T10:00:51;13.80;99.90
44166;DHT22;30476;53.468;9.826;2023-05-07T10:03:19;13.80;99.90
44166;DHT22;30476;53.468;9.826;2023-05-07T10:05:46;13.90;99.90
44166;DHT22;30476;53.468;9.826;2023-05-07T10:08:13;14.00;99.90
44166;DHT22;30476;53.468;9.826;2023-05-07T10:10:42;14.00;99.90
44166;DHT22;30476;53.468;9.826;2023-05-07T10:13:09;14.00;99.90
44166;DHT22;30476;53.468;9.826;2023-05-07T10:15:36;14.10;99.90
44166;DHT22;30476;53.468;9.826;2023-05-07T10:18:04;14.20;99.90
44166;DHT22;30476;53.468;9.826;2023-05-07T10:20:32;14.20;99.90
44166;DHT22;30476;53.468;9.826;2023-05-07T10:22:58;14.30;99.90
44166;DHT22;30476;53.468;9.826;2023-05-07T10:25:31;14.20;99.90
44166;DHT22;30476;53.468;9.826;2023-05-07T10:28:03;14.30;99.90
44166;DHT22;30476;53.468;9.826;2023-05-07T10:31:15;14.30;99.90
44166;DHT22;30476;53.468;9.826;2023-05-07T10:33:24;14.30;99.90
44166;DHT22;30476;53.468;9.826;2023-05-07T10:35:58;14.30;99.90
44166;DHT22;30476;53.468;9.826;2023-05-07T10:38:26;14.40;99.90
44166;DHT22;30476;53.468;9.826;2023-05-07T10:40:52;14.40;99.90
44166;DHT22;30476;53.468;9.826;2023-05-07T10:43:18;14.40;99.90
44166;DHT22;30476;53.468;9.826;2023-05-07T10:46:11;14.50;99.90
44166;DHT22;30476;53.468;9.826;2023-05-07T10:51:34;14.60;99.90
44166;DHT22;30476;53.468;9.826;2023-05-07T10:56:42;14.60;99.90
44166;DHT22;30476;53.468;9.826;2023-05-07T11:01:58;14.70;99.90
44166;DHT22;30476;53.468;9.826;2023-05-07T11:04:24;14.60;99.90
44166;DHT22;30476;53.468;9.826;2023-05-07T11:12:32;14.80;99.90
44166;DHT22;30476;53.468;9.826;2023-05-07T11:15:08;14.80;99.90
44166;DHT22;30476;53.468;9.826;2023-05-07T11:17:34;14.80;99.90
44166;DHT22;30476;53.468;9.826;2023-05-07T11:20:02;14.80;99.90
44166;DHT22;30476;53.468;9.826;2023-05-07T11:25:06;15.00;99.90
44166;DHT22;30476;53.468;9.826;2023-05-07T11:27:32;15.00;99.90
44166;DHT22;30476;53.468;9.826;2023-05-07T11:29:58;15.00;99.90
44166;DHT22;30476;53.468;9.826;2023-05-07T11:32:28;14.90;99.90
44166;DHT22;30476;53.468;9.826;2023-05-07T11:34:55;15.00;99.90
44166;DHT22;30476;53.468;9.826;2023-05-07T11:37:22;14.90;99.90
44166;DHT22;30476;53.468;9.826;2023-05-07T11:39:49;15.00;99.90
44166;DHT22;30476;53.468;9.826;2023-05-07T11:42:37;15.00;99.90
44166;DHT22;30476;53.468;9.826;2023-05-07T11:45:06;15.10;99.90
44166;DHT22;30476;53.468;9.826;2023-05-07T11:47:32;15.20;99.90
44166;DHT22;30476;53.468;9.826;2023-05-07T11:50:03;15.30;99.90
44166;DHT22;30476;53.468;9.826;2023-05-07T11:52:30;15.40;99.90
44166;DHT22;30476;53.468;9.826;2023-05-07T11:54:57;15.50;99.90
44166;DHT22;30476;53.468;9.826;2023-05-07T11:57:24;15.60;99.90
44166;DHT22;30476;53.468;9.826;2023-05-07T11:59:54;15.70;99.90
44166;DHT22;30476;53.468;9.826;2023-05-07T12:02:20;15.80;99.90
44166;DHT22;30476;53.468;9.826;2023-05-07T12:04:45;15.80;99.90
44166;DHT22;30476;53.468;9.826;2023-05-07T12:07:12;15.90;99.90
44166;DHT22;30476;53.468;9.826;2023-05-07T12:09:39;16.00;99.90
44166;DHT22;30476;53.468;9.826;2023-05-07T12:12:06;16.10;99.90
44166;DHT22;30476;53.468;9.826;2023-05-07T12:14:31;16.30;99.90
44166;DHT22;30476;53.468;9.826;2023-05-07T12:17:00;16.40;99.90
44166;DHT22;30476;53.468;9.826;2023-05-07T12:19:30;16.60;99.90
44166;DHT22;30476;53.468;9.826;2023-05-07T12:21:56;16.70;99.90
44166;DHT22;30476;53.468;9.826;2023-05-07T12:24:22;16.80;99.90
44166;DHT22;30476;53.468;9.826;2023-05-07T12:26:48;16.80;99.90
44166;DHT22;30476;53.468;9.826;2023-05-07T12:29:14;16.80;99.90
44166;DHT22;30476;53.468;9.826;2023-05-07T12:31:41;16.90;99.90
44166;DHT22;30476;53.468;9.826;2023-05-07T12:34:07;16.90;99.90
44166;DHT22;30476;53.468;9.826;2023-05-07T12:36:40;17.00;99.90
44166;DHT22;30476;53.468;9.826;2023-05-07T12:39:09;17.10;99.90
44166;DHT22;30476;53.468;9.826;2023-05-07T12:41:56;17.20;99.90
44166;DHT22;30476;53.468;9.826;2023-05-07T12:44:22;17.30;99.70
44166;DHT22;30476;53.468;9.826;2023-05-07T12:46:49;17.50;99.10
44166;DHT22;30476;53.468;9.826;2023-05-07T12:49:15;17.60;99.10
44166;DHT22;30476;53.468;9.826;2023-05-07T12:51:41;17.80;99.90
44166;DHT22;30476;53.468;9.826;2023-05-07T12:54:07;17.90;99.70
44166;DHT22;30476;53.468;9.826;2023-05-07T12:56:35;18.10;98.80
44166;DHT22;30476;53.468;9.826;2023-05-07T12:59:01;18.20;98.70
44166;DHT22;30476;53.468;9.826;2023-05-07T13:01:30;18.40;98.60
44166;DHT22;30476;53.468;9.826;2023-05-07T13:04:00;18.50;98.10
44166;DHT22;30476;53.468;9.826;2023-05-07T13:06:26;18.70;98.30
44166;DHT22;30476;53.468;9.826;2023-05-07T13:08:53;18.90;97.20
44166;DHT22;30476;53.468;9.826;2023-05-07T13:11:18;18.90;97.30
44166;DHT22;30476;53.468;9.826;2023-05-07T13:13:44;19.00;96.60
44166;DHT22;30476;53.468;9.826;2023-05-07T13:16:11;19.00;96.20
44166;DHT22;30476;53.468;9.826;2023-05-07T13:18:38;19.10;96.30
44166;DHT22;30476;53.468;9.826;2023-05-07T13:21:04;19.10;96.20
44166;DHT22;30476;53.468;9.826;2023-05-07T13:23:30;19.20;96.70
44166;DHT22;30476;53.468;9.826;2023-05-07T13:25:56;19.30;96.40
44166;DHT22;30476;53.468;9.826;2023-05-07T13:28:24;19.30;96.20
44166;DHT22;30476;53.468;9.826;2023-05-07T13:30:49;19.40;95.50
44166;DHT22;30476;53.468;9.826;2023-05-07T13:33:17;19.30;95.10
44166;DHT22;30476;53.468;9.826;2023-05-07T13:35:44;19.30;95.20
44166;DHT22;30476;53.468;9.826;2023-05-07T13:38:10;19.20;94.50
44166;DHT22;30476;53.468;9.826;2023-05-07T13:40:36;19.30;94.70
44166;DHT22;30476;53.468;9.826;2023-05-07T13:43:01;19.20;94.20
44166;DHT22;30476;53.468;9.826;2023-05-07T13:45:28;19.10;94.00
44166;DHT22;30476;53.468;9.826;2023-05-07T13:47:55;19.10;94.10
44166;DHT22;30476;53.468;9.826;2023-05-07T13:50:22;18.90;94.10
44166;DHT22;30476;53.468;9.826;2023-05-07T13:52:47;18.90;94.40
44166;DHT22;30476;53.468;9.826;2023-05-07T13:55:20;18.90;94.30
44166;DHT22;30476;53.468;9.826;2023-05-07T13:57:47;18.80;93.90
44166;DHT22;30476;53.468;9.826;2023-05-07T14:00:13;18.60;94.00
44166;DHT22;30476;53.468;9.826;2023-05-07T14:02:40;18.60;93.70
44166;DHT22;30476;53.468;9.826;2023-05-07T14:05:06;18.50;94.00
44166;DHT22;30476;53.468;9.826;2023-05-07T14:07:32;18.40;94.00
44166;DHT22;30476;53.468;9.826;2023-05-07T14:09:58;18.30;94.20
44166;DHT22;30476;53.468;9.826;2023-05-07T14:12:24;18.30;94.70
44166;DHT22;30476;53.468;9.826;2023-05-07T14:14:50;18.20;94.50
44166;DHT22;30476;53.468;9.826;2023-05-07T14:17:17;18.30;94.70
44166;DHT22;30476;53.468;9.826;2023-05-07T14:19:43;18.30;94.50
44166;DHT22;30476;53.468;9.826;2023-05-07T14:22:09;18.30;94.60
44166;DHT22;30476;53.468;9.826;2023-05-07T14:24:35;18.30;94.80
44166;DHT22;30476;53.468;9.826;2023-05-07T14:27:01;18.40;94.80
44166;DHT22;30476;53.468;9.826;2023-05-07T14:29:27;18.40;94.40
44166;DHT22;30476;53.468;9.826;2023-05-07T14:31:52;18.40;94.40
44166;DHT22;30476;53.468;9.826;2023-05-07T14:34:18;18.30;94.10
44166;DHT22;30476;53.468;9.826;2023-05-07T14:36:44;18.30;94.10
44166;DHT22;30476;53.468;9.826;2023-05-07T14:39:10;18.30;94.00
44166;DHT22;30476;53.468;9.826;2023-05-07T14:41:35;18.30;94.10
44166;DHT22;30476;53.468;9.826;2023-05-07T14:44:01;18.20;93.70
44166;DHT22;30476;53.468;9.826;2023-05-07T14:46:29;18.20;93.90
44166;DHT22;30476;53.468;9.826;2023-05-07T14:48:56;18.20;94.10
44166;DHT22;30476;53.468;9.826;2023-05-07T14:51:22;18.10;94.10
44166;DHT22;30476;53.468;9.826;2023-05-07T14:53:50;18.10;94.00
44166;DHT22;30476;53.468;9.826;2023-05-07T14:56:16;18.00;93.70
44166;DHT22;30476;53.468;9.826;2023-05-07T14:58:43;17.90;93.60
44166;DHT22;30476;53.468;9.826;2023-05-07T15:01:09;17.90;93.70
44166;DHT22;30476;53.468;9.826;2023-05-07T15:03:35;17.80;93.70
44166;DHT22;30476;53.468;9.826;2023-05-07T15:06:02;17.80;93.90
44166;DHT22;30476;53.468;9.826;2023-05-07T15:08:28;17.80;94.00
44166;DHT22;30476;53.468;9.826;2023-05-07T15:10:54;17.70;94.10
44166;DHT22;30476;53.468;9.826;2023-05-07T15:13:21;17.70;94.20
44166;DHT22;30476;53.468;9.826;2023-05-07T15:15:47;17.70;94.30
44166;DHT22;30476;53.468;9.826;2023-05-07T15:18:13;17.70;94.50
44166;DHT22;30476;53.468;9.826;2023-05-07T15:20:40;17.70;94.30
44166;DHT22;30476;53.468;9.826;2023-05-07T15:23:06;17.60;94.30
44166;DHT22;30476;53.468;9.826;2023-05-07T15:25:36;17.60;94.30
44166;DHT22;30476;53.468;9.826;2023-05-07T15:28:02;17.60;94.30
44166;DHT22;30476;53.468;9.826;2023-05-07T15:30:27;17.60;94.30
44166;DHT22;30476;53.468;9.826;2023-05-07T15:32:53;17.70;94.50
44166;DHT22;30476;53.468;9.826;2023-05-07T15:35:19;17.60;94.80
44166;DHT22;30476;53.468;9.826;2023-05-07T15:37:50;17.60;94.50
44166;DHT22;30476;53.468;9.826;2023-05-07T15:40:16;17.60;94.40
44166;DHT22;30476;53.468;9.826;2023-05-07T15:42:42;17.50;94.20